Terminal Aerodrome Forecast
Issued by NWS

Home | Current Version | Previous Version | Graphics & Text | Print | Product List | Glossary On
Versions: 1 2 3 4 5 6 7 8 9 10 11 12 13 14 15 16 17 18
000
FTUS43 KABR 212300
TAFPIR
TAF
KPIR 212336Z 2200/2224 13006KT P6SM SKC
     FM221200 13014KT P6SM SKC
     FM221600 14018G27KT P6SM BKN150=

USA.gov is the U.S. government's official web portal to all federal, state and local government web resources and services.